Time;durP1;ratioP1;P1;durP2;ratioP2;P2;SDS_P1;SDS_P2;PMS_P1;PMS_P2;Temp;Humidity;BMP_temperature;BMP_pressure;BME280_temperature;BME280_humidity;BME280_pressure;Samples;Min_cycle;Max_cycle;Signal;HPM_P1;HPM_P2
2022/04/25 00:01:29;;;;;;;12.23;8.00;;;22.50;99.90;;;;;;5067932;28;20114;-53
2022/04/25 00:03:55;;;;;;;11.40;7.88;;;22.50;99.90;;;;;;5070548;28;20032;-53
2022/04/25 00:06:21;;;;;;;14.05;8.75;;;22.50;99.90;;;;;;5069398;28;20032;-53
2022/04/25 00:08:47;;;;;;;11.30;7.68;;;22.50;99.90;;;;;;5070684;28;20032;-52
2022/04/25 00:11:13;;;;;;;13.60;8.10;;;22.50;99.90;;;;;;5069484;28;20031;-53
2022/04/25 00:13:39;;;;;;;12.90;8.63;;;22.50;99.90;;;;;;5070570;28;20017;-53
2022/04/25 00:16:05;;;;;;;15.35;7.65;;;22.50;99.90;;;;;;5070708;28;20496;-53
2022/04/25 00:18:30;;;;;;;10.90;7.78;;;22.50;99.90;;;;;;5070458;28;20035;-53
2022/04/25 00:20:56;;;;;;;13.77;8.77;;;22.50;99.90;;;;;;5071333;28;20028;-53
2022/04/25 00:23:23;;;;;;;12.13;8.00;;;22.50;99.90;;;;;;5074122;28;20039;-53
2022/04/25 00:25:49;;;;;;;10.88;7.95;;;22.50;99.90;;;;;;5074120;28;20036;-53
2022/04/25 00:28:15;;;;;;;11.77;8.05;;;22.50;99.90;;;;;;5074020;28;20024;-53
2022/04/25 00:30:41;;;;;;;12.52;8.63;;;22.40;99.90;;;;;;5074297;28;20120;-52
2022/04/25 00:33:07;;;;;;;12.57;8.20;;;22.40;99.90;;;;;;5073986;28;20024;-53
2022/04/25 00:35:33;;;;;;;14.27;9.05;;;22.40;99.90;;;;;;5072958;28;20450;-53
2022/04/25 00:37:59;;;;;;;13.75;9.07;;;22.50;99.90;;;;;;5073873;28;20472;-53
2022/04/25 00:40:25;;;;;;;13.35;8.68;;;22.40;99.90;;;;;;5073774;28;20464;-53
2022/04/25 00:42:51;;;;;;;12.32;8.73;;;22.40;99.90;;;;;;5073631;28;20020;-53
2022/04/25 00:45:18;;;;;;;13.40;8.82;;;22.40;99.90;;;;;;5073782;28;20035;-53
2022/04/25 00:47:45;;;;;;;12.15;8.32;;;22.40;99.90;;;;;;5073838;28;20024;-53
2022/04/25 00:50:12;;;;;;;13.05;9.45;;;22.40;99.90;;;;;;5072384;28;20070;-53
2022/04/25 00:52:38;;;;;;;12.48;8.75;;;22.40;99.90;;;;;;5073532;28;20113;-53
2022/04/25 00:55:07;;;;;;;13.93;8.88;;;22.40;99.90;;;;;;5073701;28;20033;-53
2022/04/25 00:57:33;;;;;;;13.30;9.57;;;22.40;99.90;;;;;;5073691;28;20020;-53
2022/04/25 01:00:00;;;;;;;11.60;8.63;;;22.40;99.90;;;;;;5073820;28;20139;-52
2022/04/25 01:02:26;;;;;;;11.65;8.82;;;22.40;99.90;;;;;;5073251;28;20085;-53
2022/04/25 01:04:55;;;;;;;11.02;8.15;;;22.40;99.90;;;;;;5073263;28;20040;-53
2022/04/25 01:07:21;;;;;;;12.63;8.95;;;22.40;99.90;;;;;;5073430;28;20028;-53
2022/04/25 01:09:47;;;;;;;11.75;7.97;;;22.40;99.90;;;;;;5073217;28;20034;-53
2022/04/25 01:12:13;;;;;;;10.93;7.90;;;22.40;99.90;;;;;;5073152;28;20016;-53
2022/04/25 01:14:39;;;;;;;12.82;8.57;;;22.40;99.90;;;;;;5073180;28;20020;-53
2022/04/25 01:17:07;;;;;;;13.13;8.02;;;22.40;99.90;;;;;;5073291;28;20025;-53
2022/04/25 01:19:33;;;;;;;11.77;8.38;;;22.40;99.90;;;;;;5073104;28;20112;-53
2022/04/25 01:22:01;;;;;;;11.30;8.18;;;22.40;99.90;;;;;;5072950;28;20495;-53
2022/04/25 01:27:17;;;;;;;11.25;8.48;;;22.40;99.90;;;;;;5073127;28;20170;-52
2022/04/25 01:29:45;;;;;;;11.48;8.60;;;22.40;99.90;;;;;;5072862;28;20048;-53
2022/04/25 01:32:10;;;;;;;;;;;22.40;99.90;;;;;;5072481;28;20091;-53
2022/04/25 01:34:38;;;;;;;13.50;8.73;;;22.30;99.90;;;;;;5072734;28;20050;-53
2022/04/25 01:37:05;;;;;;;13.38;8.40;;;22.30;99.90;;;;;;5072620;28;20024;-53
2022/04/25 01:39:36;;;;;;;13.35;8.88;;;22.30;99.90;;;;;;5071411;28;20039;-53
2022/04/25 01:42:04;;;;;;;12.30;7.80;;;22.30;99.90;;;;;;5071337;28;20461;-53
2022/04/25 01:44:29;;;;;;;11.60;8.20;;;22.30;99.90;;;;;;5071250;28;20476;-53
2022/04/25 01:46:56;;;;;;;12.23;8.40;;;22.30;99.90;;;;;;5072773;28;20036;-52
2022/04/25 01:49:22;;;;;;;11.00;8.25;;;22.30;99.90;;;;;;5072634;28;20056;-53
2022/04/25 01:51:47;;;;;;;9.85;7.45;;;22.30;99.90;;;;;;5072788;28;20059;-52
2022/04/25 01:54:16;;;;;;;12.02;8.63;;;22.30;99.90;;;;;;5072256;28;20232;-52
2022/04/25 01:56:42;;;;;;;13.35;8.13;;;22.30;99.90;;;;;;5072264;28;20031;-53
2022/04/25 01:59:09;;;;;;;11.95;8.45;;;22.30;99.90;;;;;;5072490;28;20024;-52
2022/04/25 02:01:34;;;;;;;12.30;8.70;;;22.30;99.90;;;;;;5102493;22;20469;-49
2022/04/25 02:04:00;;;;;;;10.15;7.30;;;22.30;99.90;;;;;;5091048;28;20293;-48
2022/04/25 02:06:26;;;;;;;10.98;7.60;;;22.30;99.90;;;;;;5092606;28;20419;-48
2022/04/25 02:08:52;;;;;;;11.20;7.60;;;22.30;99.90;;;;;;5092413;28;20028;-48
2022/04/25 02:11:21;;;;;;;10.48;8.02;;;22.30;99.90;;;;;;5092522;28;20365;-48
2022/04/25 02:13:52;;;;;;;11.50;8.05;;;22.30;99.90;;;;;;5092262;28;20059;-47
2022/04/25 02:16:19;;;;;;;12.15;8.27;;;22.30;99.90;;;;;;5091079;28;20414;-48
2022/04/25 02:18:45;;;;;;;11.48;7.95;;;22.30;99.90;;;;;;5092314;28;20409;-49
2022/04/25 02:21:11;;;;;;;10.93;7.72;;;22.30;99.90;;;;;;5092292;28;20024;-48
2022/04/25 02:23:38;;;;;;;11.02;7.57;;;22.30;99.90;;;;;;5092081;28;20068;-49
2022/04/25 02:26:05;;;;;;;11.32;8.40;;;22.20;99.90;;;;;;5092072;28;20027;-49
2022/04/25 02:28:31;;;;;;;11.57;7.28;;;22.20;99.90;;;;;;5092109;28;20028;-48
2022/04/25 02:30:58;;;;;;;11.80;8.15;;;22.20;99.90;;;;;;5092171;28;20024;-48
2022/04/25 02:33:24;;;;;;;10.57;7.60;;;22.20;99.90;;;;;;5092344;28;20024;-48
2022/04/25 02:35:50;;;;;;;12.57;8.15;;;22.20;99.90;;;;;;5092038;28;20035;-49
2022/04/25 02:38:16;;;;;;;12.98;7.72;;;22.20;99.90;;;;;;5091879;28;20024;-49
2022/04/25 02:40:42;;;;;;;11.80;7.88;;;22.20;99.90;;;;;;5091921;28;20020;-50
2022/04/25 02:43:08;;;;;;;12.40;8.18;;;22.20;99.90;;;;;;5090485;28;20169;-48
2022/04/25 02:45:35;;;;;;;13.77;7.93;;;22.20;99.90;;;;;;5091513;28;20032;-49
2022/04/25 02:48:01;;;;;;;11.27;8.25;;;22.20;99.90;;;;;;5091853;28;20403;-49
2022/04/25 02:50:27;;;;;;;10.38;7.68;;;22.20;99.90;;;;;;5091882;28;20043;-49
2022/04/25 02:52:54;;;;;;;10.15;7.47;;;22.20;99.90;;;;;;5091671;28;20482;-49
2022/04/25 02:55:22;;;;;;;11.40;7.65;;;22.20;99.90;;;;;;5091754;28;20451;-48
2022/04/25 02:57:48;;;;;;;11.68;8.15;;;22.20;99.90;;;;;;5091576;28;20035;-49
2022/04/25 03:00:14;;;;;;;10.65;8.00;;;22.20;99.90;;;;;;5096586;22;20044;-46
2022/04/25 03:02:40;;;;;;;13.27;8.30;;;22.20;99.90;;;;;;5071170;28;20056;-48
2022/04/25 03:05:06;;;;;;;12.18;7.97;;;22.20;99.90;;;;;;5071300;28;20416;-45
2022/04/25 03:07:32;;;;;;;13.88;8.52;;;22.20;99.90;;;;;;5071147;28;20016;-45
2022/04/25 03:09:57;;;;;;;12.05;8.27;;;22.20;99.90;;;;;;5071271;28;20387;-45
2022/04/25 03:12:23;;;;;;;11.48;7.93;;;22.20;99.90;;;;;;5071402;28;20024;-46
2022/04/25 03:14:49;;;;;;;11.63;7.93;;;22.20;99.90;;;;;;5071032;28;20090;-46
2022/04/25 03:17:15;;;;;;;10.48;7.60;;;22.20;99.90;;;;;;5071019;28;20375;-46
2022/04/25 03:19:41;;;;;;;9.38;7.20;;;22.20;99.90;;;;;;5071180;28;20075;-46
2022/04/25 03:22:07;;;;;;;13.85;8.77;;;22.20;99.90;;;;;;5071141;28;20451;-46
2022/04/25 03:24:33;;;;;;;11.07;8.02;;;22.20;99.90;;;;;;5071052;28;20468;-46
2022/04/25 03:26:59;;;;;;;12.43;8.20;;;22.20;99.90;;;;;;5071331;28;20487;-47
2022/04/25 03:29:24;;;;;;;9.75;7.15;;;22.20;99.90;;;;;;5071087;28;20034;-46
2022/04/25 03:31:50;;;;;;;12.50;8.35;;;22.20;99.90;;;;;;5071076;28;20026;-47
2022/04/25 03:34:17;;;;;;;11.13;8.02;;;22.20;99.90;;;;;;5071112;28;20085;-46
2022/04/25 03:36:46;;;;;;;11.45;8.25;;;22.20;99.90;;;;;;5070688;28;20063;-46
2022/04/25 03:39:12;;;;;;;13.45;7.78;;;22.20;99.90;;;;;;5070736;28;20077;-46
2022/04/25 03:41:37;;;;;;;10.65;7.13;;;22.20;99.90;;;;;;5070792;28;20020;-46
2022/04/25 03:44:03;;;;;;;10.70;7.20;;;22.20;99.90;;;;;;5067007;28;20040;-46
2022/04/25 03:46:31;;;;;;;13.35;7.97;;;22.20;99.90;;;;;;5061209;28;20028;-45
2022/04/25 03:48:56;;;;;;;11.90;7.60;;;22.20;99.90;;;;;;5065044;28;20383;-45
2022/04/25 03:51:23;;;;;;;8.65;6.95;;;22.20;99.90;;;;;;5070667;28;20028;-45
2022/04/25 03:53:49;;;;;;;10.90;6.65;;;22.20;99.90;;;;;;5070915;28;20035;-45
2022/04/25 03:59:00;;;;;;;14.18;7.22;;;22.20;99.90;;;;;;5075197;28;20027;-45
2022/04/25 04:01:26;;;;;;;9.43;6.82;;;22.20;99.90;;;;;;5072294;22;20064;-49
2022/04/25 04:03:51;;;;;;;11.60;7.22;;;22.20;99.90;;;;;;5052832;28;20189;-49
2022/04/25 04:06:17;;;;;;;9.88;7.25;;;22.20;99.90;;;;;;5052711;28;20025;-49
2022/04/25 04:08:43;;;;;;;10.90;6.90;;;22.20;99.90;;;;;;5053075;28;20484;-49
2022/04/25 04:11:09;;;;;;;9.48;6.88;;;22.20;99.90;;;;;;5053345;28;20480;-46
2022/04/25 04:13:35;;;;;;;10.57;7.20;;;22.20;99.90;;;;;;5068099;28;20043;-49
2022/04/25 04:16:01;;;;;;;9.05;6.07;;;22.20;99.90;;;;;;5074899;28;20024;-48
2022/04/25 04:18:28;;;;;;;9.82;6.80;;;22.20;99.90;;;;;;5094523;28;20016;-47
2022/04/25 04:20:54;;;;;;;11.55;7.10;;;22.20;99.90;;;;;;5094481;28;20024;-48
2022/04/25 04:23:20;;;;;;;9.48;6.57;;;22.10;99.90;;;;;;5094239;28;20089;-48
2022/04/25 04:25:45;;;;;;;11.18;7.55;;;22.20;99.90;;;;;;5092969;28;20372;-48
2022/04/25 04:28:11;;;;;;;12.52;6.57;;;22.20;99.90;;;;;;5094505;28;20031;-47
2022/04/25 04:30:37;;;;;;;13.68;6.75;;;22.10;99.90;;;;;;5094253;28;20024;-47
2022/04/25 04:33:05;;;;;;;10.57;7.00;;;22.20;99.90;;;;;;5094360;28;20024;-48
2022/04/25 04:38:15;;;;;;;8.93;6.18;;;22.10;99.90;;;;;;5094462;28;20043;-47
2022/04/25 04:40:41;;;;;;;9.57;5.65;;;22.10;99.90;;;;;;5094092;28;20384;-48
2022/04/25 04:43:07;;;;;;;9.75;6.03;;;22.10;99.90;;;;;;5094095;28;20066;-47
2022/04/25 04:45:33;;;;;;;9.63;6.00;;;22.10;99.90;;;;;;5094120;28;20043;-48
2022/04/25 04:47:59;;;;;;;9.85;6.28;;;22.10;99.90;;;;;;5094049;28;20379;-47
2022/04/25 04:50:25;;;;;;;9.10;6.22;;;22.10;99.90;;;;;;5093929;28;20020;-48
2022/04/25 04:52:58;;;;;;;8.52;5.80;;;22.10;99.90;;;;;;5093916;28;20027;-48
2022/04/25 04:55:24;;;;;;;7.75;5.70;;;22.10;99.90;;;;;;5093668;28;20471;-46
2022/04/25 04:57:51;;;;;;;10.38;5.85;;;22.10;99.90;;;;;;5093759;28;20368;-47
2022/04/25 05:00:17;;;;;;;8.40;5.82;;;22.10;99.90;;;;;;5093658;28;20048;-49
2022/04/25 05:02:44;;;;;;;10.82;5.53;;;22.10;99.90;;;;;;5093645;28;20371;-49
2022/04/25 05:05:12;;;;;;;8.52;5.57;;;22.10;99.90;;;;;;5093818;28;20115;-48
2022/04/25 05:07:38;;;;;;;11.82;6.45;;;22.10;99.90;;;;;;5093453;28;20505;-48
2022/04/25 05:10:06;;;;;;;10.75;6.10;;;22.10;99.90;;;;;;5093912;28;20134;-49
2022/04/25 05:12:49;;;;;;;9.90;5.53;;;22.10;99.90;;;;;;5093759;28;20097;-49
2022/04/25 05:15:15;;;;;;;12.98;6.35;;;22.10;99.90;;;;;;5093548;28;20024;-49
2022/04/25 05:17:43;;;;;;;11.20;5.93;;;22.10;99.90;;;;;;5093414;28;20036;-49
2022/04/25 05:20:10;;;;;;;7.68;5.43;;;22.10;99.90;;;;;;5093398;28;20031;-49
2022/04/25 05:22:40;;;;;;;;;;;22.10;99.90;;;;;;5093965;28;20032;-49
2022/04/25 05:25:06;;;;;;;10.77;6.13;;;22.10;99.90;;;;;;5093244;28;19912;-48
2022/04/25 05:27:32;;;;;;;9.85;5.78;;;22.10;99.90;;;;;;5093247;28;20022;-48
2022/04/25 05:29:57;;;;;;;9.73;6.40;;;22.10;99.90;;;;;;5093308;28;20032;-48
2022/04/25 05:32:23;;;;;;;9.45;6.00;;;22.10;99.90;;;;;;5093127;28;20055;-48
2022/04/25 05:34:49;;;;;;;8.05;5.15;;;22.10;99.90;;;;;;5093174;28;20070;-47
2022/04/25 05:37:15;;;;;;;9.70;5.10;;;22.10;99.90;;;;;;5093049;28;20081;-47
2022/04/25 05:39:41;;;;;;;9.18;5.88;;;22.10;99.90;;;;;;5092823;28;20056;-48
2022/04/25 05:42:07;;;;;;;9.68;6.00;;;22.10;99.90;;;;;;5092987;28;20052;-47
2022/04/25 05:44:33;;;;;;;9.57;5.55;;;22.10;99.90;;;;;;5092914;28;20035;-47
2022/04/25 05:46:59;;;;;;;9.10;5.05;;;22.00;99.90;;;;;;5092974;28;20020;-49
2022/04/25 05:52:10;;;;;;;9.52;5.30;;;22.10;99.90;;;;;;5092777;28;20039;-49
2022/04/25 05:54:36;;;;;;;9.65;5.40;;;22.10;99.90;;;;;;5092922;28;20020;-48
2022/04/25 05:57:02;;;;;;;10.57;5.57;;;22.10;99.90;;;;;;5092683;28;20449;-48
2022/04/25 05:59:29;;;;;;;8.82;5.10;;;22.00;99.90;;;;;;5092329;28;20024;-48
2022/04/25 06:01:56;;;;;;;11.68;5.80;;;22.10;99.90;;;;;;5092451;28;20028;-48
2022/04/25 06:04:22;;;;;;;8.07;5.00;;;22.10;99.90;;;;;;5092572;28;20431;-49
2022/04/25 06:06:48;;;;;;;9.95;5.22;;;22.10;99.90;;;;;;5091194;28;20107;-47
2022/04/25 06:09:15;;;;;;;8.95;5.40;;;22.10;99.90;;;;;;5091182;28;20024;-49
2022/04/25 06:11:42;;;;;;;8.30;4.97;;;22.10;99.90;;;;;;5092616;28;20447;-47
2022/04/25 06:14:08;;;;;;;8.00;4.97;;;22.10;99.90;;;;;;5092539;28;20031;-47
2022/04/25 06:16:34;;;;;;;7.57;4.75;;;22.10;99.90;;;;;;5091093;28;20024;-48
2022/04/25 06:19:01;;;;;;;10.70;6.05;;;22.10;99.90;;;;;;5090285;28;20220;-48
2022/04/25 06:21:27;;;;;;;9.60;5.00;;;22.10;99.90;;;;;;5092299;28;20024;-48
2022/04/25 06:23:52;;;;;;;9.07;4.68;;;22.10;99.90;;;;;;5092227;28;20458;-49
2022/04/25 06:26:18;;;;;;;8.05;4.75;;;22.10;99.90;;;;;;5092051;28;20103;-49
2022/04/25 06:28:44;;;;;;;7.05;4.70;;;22.10;99.90;;;;;;5092016;28;20146;-49
2022/04/25 06:31:10;;;;;;;10.55;5.38;;;22.10;99.90;;;;;;5092277;28;20028;-48
2022/04/25 06:33:35;;;;;;;9.15;4.95;;;22.10;99.90;;;;;;5091904;28;20035;-50
2022/04/25 06:36:01;;;;;;;9.43;4.90;;;22.10;99.90;;;;;;5090629;28;20051;-48
2022/04/25 06:38:27;;;;;;;9.52;5.15;;;22.10;99.90;;;;;;5092025;28;20025;-49
2022/04/25 06:40:53;;;;;;;7.30;4.78;;;22.10;99.90;;;;;;5091779;28;20451;-50
2022/04/25 06:43:19;;;;;;;8.10;5.28;;;22.10;99.90;;;;;;5091957;28;20386;-49
2022/04/25 06:45:45;;;;;;;7.03;4.18;;;22.10;99.90;;;;;;5091772;28;20031;-48
2022/04/25 06:48:30;;;;;;;11.32;5.65;;;22.10;99.90;;;;;;5091844;28;20024;-49
2022/04/25 06:50:55;;;;;;;8.63;5.65;;;22.10;99.90;;;;;;5091556;28;20462;-47
2022/04/25 06:53:22;;;;;;;6.47;4.25;;;22.10;99.90;;;;;;5091654;28;20031;-49
2022/04/25 06:55:47;;;;;;;6.35;4.22;;;22.10;99.90;;;;;;5091702;28;20060;-48
2022/04/25 06:58:13;;;;;;;8.27;5.85;;;22.10;99.90;;;;;;5091524;28;20051;-48
2022/04/25 07:00:39;;;;;;;7.82;4.38;;;22.10;99.90;;;;;;5091611;28;20048;-49
2022/04/25 07:03:05;;;;;;;9.20;5.18;;;22.10;99.90;;;;;;5091434;28;20031;-48
2022/04/25 07:05:31;;;;;;;8.38;4.90;;;22.10;99.90;;;;;;5091351;28;20031;-49
2022/04/25 07:07:57;;;;;;;7.22;4.57;;;22.10;99.90;;;;;;5091488;28;20024;-49
2022/04/25 07:10:23;;;;;;;7.10;4.80;;;22.10;99.90;;;;;;5091270;28;20107;-48
2022/04/25 07:12:49;;;;;;;9.13;5.35;;;22.10;99.90;;;;;;5091232;28;20020;-48
2022/04/25 07:15:15;;;;;;;8.20;4.82;;;22.20;99.90;;;;;;5091430;28;20024;-49
2022/04/25 07:17:41;;;;;;;7.43;4.55;;;22.20;99.90;;;;;;5091590;28;20486;-48
2022/04/25 07:20:07;;;;;;;8.73;4.78;;;22.20;99.90;;;;;;5091308;28;20077;-49
2022/04/25 07:30:45;;;;;;;9.98;4.55;;;22.20;99.90;;;;;;5090938;28;20027;-48
2022/04/25 07:33:11;;;;;;;11.57;4.80;;;22.20;99.90;;;;;;5095523;28;20024;-48
2022/04/25 07:35:39;;;;;;;7.28;4.30;;;22.20;99.90;;;;;;5095298;28;20075;-48
2022/04/25 07:38:05;;;;;;;7.78;4.45;;;22.20;99.90;;;;;;5095155;28;20035;-47
2022/04/25 07:40:31;;;;;;;4.88;3.63;;;22.20;99.90;;;;;;5095365;28;20030;-48
2022/04/25 07:42:57;;;;;;;8.20;4.57;;;22.20;99.90;;;;;;5095026;28;20450;-48
2022/04/25 07:45:23;;;;;;;8.75;4.65;;;22.20;99.90;;;;;;5094959;28;20059;-48
2022/04/25 07:50:33;;;;;;;7.15;4.43;;;22.30;99.90;;;;;;5094926;28;20105;-47
2022/04/25 07:52:59;;;;;;;6.70;4.57;;;22.20;99.90;;;;;;5095116;28;20020;-48
2022/04/25 07:55:25;;;;;;;7.57;4.38;;;22.30;99.90;;;;;;5094614;28;20038;-47
2022/04/25 07:57:51;;;;;;;6.93;4.40;;;22.30;99.90;;;;;;5094853;28;20024;-48
2022/04/25 08:00:35;;;;;;;7.97;4.50;;;22.30;99.90;;;;;;5094491;28;20056;-47
2022/04/25 08:03:04;;;;;;;6.80;4.25;;;22.30;99.90;;;;;;5094553;28;20382;-47
2022/04/25 08:05:30;;;;;;;6.20;4.10;;;22.30;99.90;;;;;;5094788;28;20407;-48
2022/04/25 08:07:56;;;;;;;7.63;4.68;;;22.30;99.90;;;;;;5094651;28;20032;-48
2022/04/25 08:10:22;;;;;;;7.88;4.07;;;22.30;99.90;;;;;;5094543;28;20043;-48
2022/04/25 08:18:16;;;;;;;6.60;4.43;;;22.30;99.90;;;;;;5094702;28;20502;-47
2022/04/25 08:20:42;;;;;;;9.27;4.07;;;22.30;99.90;;;;;;5094430;28;20032;-48
2022/04/25 08:23:11;;;;;;;9.75;4.45;;;22.40;99.90;;;;;;5094332;28;20032;-47
2022/04/25 08:25:39;;;;;;;4.85;3.60;;;22.40;99.90;;;;;;5094290;28;20115;-48
2022/04/25 08:28:05;;;;;;;7.43;4.30;;;22.40;99.90;;;;;;5094223;28;20024;-47
2022/04/25 08:30:31;;;;;;;8.98;4.57;;;22.40;99.90;;;;;;5094232;28;20490;-47
2022/04/25 08:32:59;;;;;;;7.78;4.20;;;22.40;99.90;;;;;;5094050;28;20483;-47
2022/04/25 08:35:25;;;;;;;7.75;4.68;;;22.40;99.90;;;;;;5094279;28;20355;-49
2022/04/25 08:37:51;;;;;;;7.40;4.25;;;22.40;99.90;;;;;;5094245;28;20455;-48
2022/04/25 08:40:17;;;;;;;8.95;3.70;;;22.40;99.90;;;;;;5094160;28;20039;-48
2022/04/25 08:42:44;;;;;;;5.93;3.55;;;22.40;99.90;;;;;;5093565;28;20028;-49
2022/04/25 08:45:11;;;;;;;5.80;4.00;;;22.50;99.90;;;;;;5093891;28;20136;-48
2022/04/25 08:47:53;;;;;;;7.55;3.78;;;22.40;99.90;;;;;;5093900;28;20394;-48
2022/04/25 08:50:19;;;;;;;6.55;4.00;;;22.50;99.90;;;;;;5093601;28;20103;-48
2022/04/25 08:52:46;;;;;;;6.63;4.50;;;22.50;99.90;;;;;;5093938;28;20172;-47
2022/04/25 08:55:13;;;;;;;9.30;4.60;;;22.50;99.90;;;;;;5093826;28;20024;-48
2022/04/25 08:57:42;;;;;;;5.70;3.83;;;22.50;99.90;;;;;;5093669;28;20032;-48
2022/04/25 09:00:09;;;;;;;7.82;4.35;;;22.50;99.90;;;;;;5093367;28;20180;-47
2022/04/25 09:02:36;;;;;;;7.65;4.45;;;22.50;99.90;;;;;;5093518;28;20483;-48
2022/04/25 09:05:02;;;;;;;6.95;3.17;;;22.50;99.90;;;;;;5078124;28;20064;-48
2022/04/25 09:07:28;;;;;;;5.40;4.18;;;22.50;99.90;;;;;;5070667;28;20073;-48
2022/04/25 09:09:54;;;;;;;5.90;3.58;;;22.60;99.90;;;;;;5073214;28;20437;-47
2022/04/25 09:12:20;;;;;;;6.88;4.60;;;22.60;99.90;;;;;;5073137;28;20098;-48
2022/04/25 09:14:46;;;;;;;6.30;3.90;;;22.60;99.90;;;;;;5073214;28;20032;-48
2022/04/25 09:17:12;;;;;;;5.82;3.67;;;22.60;99.90;;;;;;5073160;28;20051;-48
2022/04/25 09:19:39;;;;;;;5.43;3.53;;;22.60;99.90;;;;;;5072880;28;20024;-47
2022/04/25 09:22:25;;;;;;;7.03;4.03;;;22.60;99.90;;;;;;5072921;28;20020;-47
2022/04/25 09:24:50;;;;;;;6.07;3.65;;;22.60;99.90;;;;;;5072795;28;20051;-47
2022/04/25 09:27:36;;;;;;;5.82;4.25;;;22.60;99.90;;;;;;5073196;28;20021;-47
2022/04/25 09:30:35;;;;;;;6.20;3.70;;;22.60;99.90;;;;;;5072756;28;20048;-47
2022/04/25 09:35:53;;;;;;;6.50;3.75;;;22.70;99.90;;;;;;5073070;28;20063;-47
2022/04/25 09:38:33;;;;;;;7.63;3.85;;;22.70;99.90;;;;;;5072887;28;20059;-48
2022/04/25 09:40:59;;;;;;;8.73;5.00;;;22.70;99.90;;;;;;5072645;28;20464;-47
2022/04/25 09:43:32;;;;;;;6.97;3.97;;;22.70;99.90;;;;;;5072608;28;20086;-47
2022/04/25 09:46:17;;;;;;;10.02;4.40;;;22.70;99.90;;;;;;5072619;28;20035;-47
2022/04/25 09:49:03;;;;;;;6.00;3.92;;;22.70;99.90;;;;;;5072577;28;20514;-47
2022/04/25 09:51:30;;;;;;;6.38;3.83;;;22.70;99.90;;;;;;5072380;28;20416;-47
2022/04/25 09:53:57;;;;;;;5.40;3.40;;;22.70;99.90;;;;;;5071526;28;20462;-48
2022/04/25 09:56:29;;;;;;;5.93;3.90;;;22.70;99.90;;;;;;5072353;28;20040;-48
2022/04/25 09:59:05;;;;;;;7.18;3.85;;;22.80;99.90;;;;;;5072222;28;20017;-48
2022/04/25 10:01:35;;;;;;;5.25;3.95;;;22.80;99.90;;;;;;5072091;28;20100;-48
2022/04/25 10:04:02;;;;;;;6.07;3.88;;;22.80;99.90;;;;;;5072075;28;20034;-48
2022/04/25 10:06:34;;;;;;;8.57;4.38;;;22.90;99.90;;;;;;5072120;28;20024;-48
2022/04/25 10:09:06;;;;;;;5.80;3.67;;;22.90;99.90;;;;;;5072188;28;20082;-47
2022/04/25 10:11:39;;;;;;;7.13;4.15;;;22.90;99.90;;;;;;5071553;28;20108;-47
2022/04/25 10:14:05;;;;;;;6.90;4.00;;;23.00;99.90;;;;;;5071937;28;20052;-48
2022/04/25 10:16:33;;;;;;;6.60;4.00;;;23.00;99.90;;;;;;5071825;28;20055;-47
2022/04/25 10:18:59;;;;;;;5.90;3.95;;;23.00;99.90;;;;;;5054009;28;20028;-47
2022/04/25 10:21:29;;;;;;;4.47;3.60;;;23.10;99.90;;;;;;5071730;28;20024;-48
2022/04/25 10:23:57;;;;;;;6.80;4.10;;;23.10;99.90;;;;;;5071771;28;20442;-48
2022/04/25 10:26:26;;;;;;;;;;;23.10;99.90;;;;;;5072211;28;20020;-49
2022/04/25 10:29:13;;;;;;;5.15;3.45;;;23.10;99.90;;;;;;5071959;28;19904;-48
2022/04/25 10:31:42;;;;;;;11.73;3.88;;;23.10;99.90;;;;;;5071685;28;20027;-48
2022/04/25 10:34:09;;;;;;;6.93;3.83;;;23.20;99.90;;;;;;5071566;28;20029;-51
2022/04/25 10:36:38;;;;;;;5.88;4.22;;;23.20;99.90;;;;;;5071557;28;20487;-48
2022/04/25 10:39:14;;;;;;;7.63;4.30;;;23.20;99.90;;;;;;5071450;28;20040;-50
2022/04/25 10:44:28;;;;;;;7.30;4.00;;;23.20;99.90;;;;;;5071427;28;20075;-48
2022/04/25 10:47:06;;;;;;;6.28;4.25;;;23.20;99.90;;;;;;5071676;28;20436;-51
2022/04/25 10:49:51;;;;;;;8.70;4.22;;;23.30;99.90;;;;;;5071419;28;20024;-49
2022/04/25 10:55:20;;;;;;;7.07;4.47;;;23.30;99.90;;;;;;5071359;28;20488;-48
2022/04/25 10:58:07;;;;;;;8.63;4.32;;;23.30;99.90;;;;;;5071394;28;20487;-48
2022/04/25 11:00:44;;;;;;;;;;;23.30;99.90;;;;;;5071633;28;20128;-48
2022/04/25 11:03:13;;;;;;;11.35;4.38;;;23.40;99.90;;;;;;5071153;28;19918;-48
2022/04/25 11:05:42;;;;;;;8.07;4.93;;;23.40;99.90;;;;;;5071163;28;20428;-47
2022/04/25 11:08:18;;;;;;;7.78;4.32;;;23.40;99.90;;;;;;5071090;28;20016;-49
2022/04/25 11:10:45;;;;;;;6.15;4.38;;;23.40;99.90;;;;;;5071125;28;20024;-47
2022/04/25 11:13:16;;;;;;;12.10;4.53;;;23.40;99.90;;;;;;5071222;28;20024;-48
2022/04/25 11:15:56;;;;;;;7.10;4.82;;;23.40;99.90;;;;;;5071061;28;20063;-48
2022/04/25 11:18:30;;;;;;;7.15;4.30;;;23.40;99.90;;;;;;5071402;28;20048;-48
2022/04/25 11:21:05;;;;;;;7.88;4.90;;;23.40;99.90;;;;;;5071318;28;20124;-48
2022/04/25 11:23:35;;;;;;;8.13;4.78;;;23.50;99.90;;;;;;5070960;28;20043;-48
2022/04/25 11:26:04;;;;;;;10.10;5.15;;;23.50;99.90;;;;;;5070975;28;20029;-49
2022/04/25 11:28:33;;;;;;;6.43;4.63;;;23.50;99.90;;;;;;5069845;28;20028;-49
2022/04/25 11:31:14;;;;;;;6.63;4.38;;;23.50;99.90;;;;;;5071024;28;20120;-47
2022/04/25 11:33:42;;;;;;;9.48;5.10;;;23.60;99.90;;;;;;5071061;28;20429;-49
2022/04/25 11:36:08;;;;;;;10.07;5.10;;;23.60;99.90;;;;;;5070819;28;20021;-48
2022/04/25 11:41:40;;;;;;;6.78;4.82;;;23.60;99.90;;;;;;5070872;28;20039;-49
2022/04/25 11:44:06;;;;;;;5.97;4.10;;;23.60;99.90;;;;;;5070785;28;20032;-48
2022/04/25 11:46:37;;;;;;;7.93;4.50;;;23.60;99.90;;;;;;5071026;28;20032;-48
2022/04/25 11:49:05;;;;;;;8.50;4.25;;;23.70;99.90;;;;;;5070779;28;20498;-48
2022/04/25 11:51:32;;;;;;;7.15;4.07;;;23.70;99.90;;;;;;5083838;28;20024;-48
2022/04/25 11:54:01;;;;;;;6.93;3.85;;;23.70;99.90;;;;;;5091331;28;20017;-50
2022/04/25 11:56:27;;;;;;;7.57;4.40;;;23.70;99.90;;;;;;5091127;28;20487;-48
2022/04/25 11:58:55;;;;;;;5.80;3.93;;;23.70;99.90;;;;;;5091113;28;20028;-48
2022/04/25 12:01:47;;;;;;;17.80;3.88;;;23.70;99.90;;;;;;5090610;28;20322;-48
2022/04/25 12:04:21;;;;;;;5.55;3.90;;;23.80;99.90;;;;;;5090790;28;20032;-47
2022/04/25 12:07:03;;;;;;;9.40;4.85;;;23.80;99.90;;;;;;5089788;28;20174;-48
2022/04/25 12:18:25;;;;;;;9.75;4.18;;;23.90;99.90;;;;;;5092846;28;20031;-48
2022/04/25 12:21:05;;;;;;;8.35;4.55;;;23.90;99.90;;;;;;5093512;28;20019;-48
2022/04/25 12:23:33;;;;;;;8.55;4.20;;;23.90;99.90;;;;;;5093504;28;20028;-48
2022/04/25 12:26:06;;;;;;;8.23;4.05;;;24.00;99.90;;;;;;5094342;28;20024;-48
2022/04/25 12:28:37;;;;;;;9.40;3.75;;;24.00;99.90;;;;;;5092897;28;20024;-48
2022/04/25 12:31:09;;;;;;;7.40;3.67;;;24.00;99.90;;;;;;5090896;28;20035;-47
2022/04/25 12:33:42;;;;;;;6.65;3.80;;;24.00;99.90;;;;;;5074085;28;20074;-47
2022/04/25 12:36:27;;;;;;;6.72;3.42;;;24.00;99.90;;;;;;5073788;28;20036;-48
2022/04/25 12:39:00;;;;;;;7.80;3.92;;;24.00;99.90;;;;;;5073821;28;20036;-48
2022/04/25 12:41:30;;;;;;;8.75;3.75;;;24.00;99.90;;;;;;5074007;28;20526;-48
2022/04/25 12:43:58;;;;;;;6.18;3.70;;;24.00;99.90;;;;;;5073935;28;20392;-48
2022/04/25 12:46:40;;;;;;;;;;;24.00;99.90;;;;;;5074337;28;20016;-48
2022/04/25 12:49:11;;;;;;;6.50;3.03;;;24.00;99.90;;;;;;5073652;28;19905;-48
2022/04/25 12:51:46;;;;;;;9.45;3.50;;;24.00;99.90;;;;;;5073598;28;20052;-48
2022/04/25 12:54:20;;;;;;;7.00;3.58;;;24.00;99.90;;;;;;5073592;28;20023;-48
2022/04/25 12:56:47;;;;;;;8.63;3.30;;;24.10;99.90;;;;;;5072441;28;20035;-47
2022/04/25 12:59:26;;;;;;;8.52;3.40;;;24.00;99.90;;;;;;5073552;28;20628;-48
2022/04/25 13:02:05;;;;;;;9.50;3.78;;;24.10;99.90;;;;;;5073531;28;20041;-48
2022/04/25 13:04:32;;;;;;;11.60;3.10;;;24.10;99.90;;;;;;5073414;28;20106;-48
2022/04/25 13:06:57;;;;;;;9.57;3.85;;;24.10;99.90;;;;;;5073439;28;20024;-48
2022/04/25 13:09:23;;;;;;;9.40;3.15;;;24.10;99.90;;;;;;5073510;28;20024;-48
2022/04/25 13:11:49;;;;;;;7.43;3.60;;;24.10;99.90;;;;;;5073423;28;20020;-48
2022/04/25 13:14:15;;;;;;;10.35;3.53;;;24.10;99.90;;;;;;5073205;28;20525;-48
2022/04/25 13:16:41;;;;;;;4.90;2.88;;;24.10;99.90;;;;;;5073369;28;20079;-49
2022/04/25 13:19:07;;;;;;;10.00;3.92;;;24.10;99.90;;;;;;5073209;28;20033;-46
2022/04/25 13:21:38;;;;;;;5.07;3.30;;;24.10;99.90;;;;;;5065381;28;20099;-47
2022/04/25 13:24:04;;;;;;;10.82;4.43;;;24.10;99.90;;;;;;5062286;28;20033;-48
2022/04/25 13:26:30;;;;;;;5.03;3.38;;;24.10;99.90;;;;;;5073242;28;20019;-48
2022/04/25 13:28:55;;;;;;;6.88;3.03;;;24.10;99.90;;;;;;5071532;28;20020;-48
2022/04/25 13:31:21;;;;;;;6.03;3.22;;;24.10;99.90;;;;;;5071380;28;20016;-47
2022/04/25 13:33:47;;;;;;;8.77;2.88;;;24.20;99.90;;;;;;5070759;28;20480;-48
2022/04/25 13:36:14;;;;;;;9.65;3.13;;;24.20;99.90;;;;;;5072213;28;20483;-48